createdAt,value
2023-02-26T00:00:25.667Z,62.95
2023-02-26T00:05:25.625Z,63.03
2023-02-26T00:10:25.566Z,63.08
2023-02-26T00:15:25.468Z,63.13
2023-02-26T00:20:25.445Z,63.10
2023-02-26T00:25:25.377Z,63.14
2023-02-26T00:30:25.330Z,63.14
2023-02-26T00:35:25.243Z,63.14
2023-02-26T00:40:25.174Z,63.16
2023-02-26T00:45:25.098Z,63.18
2023-02-26T00:50:25.091Z,63.14
2023-02-26T00:55:24.979Z,63.16
2023-02-26T01:00:24.921Z,63.25
2023-02-26T01:05:43.654Z,63.28
2023-02-26T01:10:36.086Z,63.40
2023-02-26T01:15:36.155Z,63.44
2023-02-26T01:20:35.929Z,63.48
2023-02-26T01:25:35.890Z,63.55
2023-02-26T01:30:35.810Z,63.65
2023-02-26T01:35:35.736Z,63.68
2023-02-26T01:40:35.671Z,63.70
2023-02-26T01:45:35.619Z,63.74
2023-02-26T01:50:35.562Z,63.81
2023-02-26T01:55:35.507Z,63.78
2023-02-26T02:00:35.467Z,63.79
2023-02-26T02:05:35.394Z,63.78
2023-02-26T02:10:35.418Z,63.77
2023-02-26T02:15:35.249Z,63.81
2023-02-26T02:20:35.152Z,63.82
2023-02-26T02:25:35.116Z,63.89
2023-02-26T02:30:35.026Z,63.93
2023-02-26T02:35:34.984Z,63.98
2023-02-26T02:40:34.907Z,63.99
2023-02-26T02:45:34.864Z,64.02
2023-02-26T02:50:34.776Z,64.04
2023-02-26T02:55:34.764Z,64.10
2023-02-26T03:00:34.656Z,64.12
2023-02-26T03:05:34.607Z,64.14
2023-02-26T03:10:34.549Z,64.14
2023-02-26T03:15:34.463Z,64.12
2023-02-26T03:20:34.385Z,64.12
2023-02-26T03:25:34.341Z,64.13
2023-02-26T03:30:34.292Z,64.18
2023-02-26T03:35:34.246Z,64.20
2023-02-26T03:40:34.162Z,64.22
2023-02-26T03:45:34.083Z,64.22
2023-02-26T03:50:34.023Z,64.25
2023-02-26T03:55:33.964Z,64.28
2023-02-26T04:00:54.865Z,64.32
2023-02-26T04:05:33.826Z,64.36
2023-02-26T04:10:33.772Z,64.40
2023-02-26T04:15:33.766Z,64.44
2023-02-26T04:20:33.691Z,64.46
2023-02-26T04:25:33.593Z,64.49
2023-02-26T04:30:33.542Z,64.52
2023-02-26T04:35:33.421Z,64.51
2023-02-26T04:40:33.391Z,64.50
2023-02-26T04:45:33.316Z,64.48
2023-02-26T04:50:33.276Z,64.46
2023-02-26T04:55:33.217Z,64.44
2023-02-26T05:00:33.145Z,64.42
2023-02-26T05:05:33.064Z,64.44
2023-02-26T05:10:33.037Z,64.46
2023-02-26T05:15:32.939Z,64.51
2023-02-26T05:20:32.904Z,64.52
2023-02-26T05:25:32.829Z,64.53
2023-02-26T05:30:32.835Z,64.55
2023-02-26T05:35:32.671Z,64.56
2023-02-26T05:40:32.644Z,64.57
2023-02-26T05:45:32.553Z,64.57
2023-02-26T05:50:32.518Z,64.58
2023-02-26T05:55:32.442Z,64.63
2023-02-26T06:00:32.397Z,64.67
2023-02-26T06:05:32.308Z,64.71
2023-02-26T06:10:32.254Z,64.73
2023-02-26T06:15:32.187Z,64.74
2023-02-26T06:20:32.129Z,64.73
2023-02-26T06:25:32.066Z,64.73
2023-02-26T06:30:32.098Z,64.68
2023-02-26T06:35:31.927Z,64.56
2023-02-26T06:40:31.893Z,64.45
2023-02-26T06:45:31.924Z,64.44
2023-02-26T06:50:31.756Z,64.47
2023-02-26T06:55:31.679Z,64.44
2023-02-26T07:00:46.044Z,64.36
2023-02-26T07:05:38.419Z,64.22
2023-02-26T07:10:38.334Z,64.02
2023-02-26T07:15:38.334Z,63.61
2023-02-26T07:20:38.208Z,62.93
2023-02-26T07:25:38.155Z,59.68
2023-02-26T07:30:38.140Z,59.34
2023-02-26T07:35:38.012Z,59.96
2023-02-26T07:40:37.943Z,58.77
2023-02-26T07:45:37.897Z,57.12
2023-02-26T07:50:37.830Z,55.80
2023-02-26T07:55:37.761Z,55.39
2023-02-26T08:00:37.661Z,55.04
2023-02-26T08:05:37.943Z,54.45
2023-02-26T08:10:37.551Z,52.84
2023-02-26T08:15:37.551Z,51.89
2023-02-26T08:20:37.423Z,51.29
2023-02-26T08:25:37.339Z,50.12
2023-02-26T08:30:37.307Z,49.15
2023-02-26T08:35:37.219Z,47.69
2023-02-26T08:40:37.148Z,45.94
2023-02-26T08:45:37.112Z,43.49
2023-02-26T08:50:37.013Z,41.65
2023-02-26T08:55:36.957Z,40.91
2023-02-26T09:00:36.899Z,35.77
2023-02-26T09:05:36.796Z,34.86
2023-02-26T09:10:36.826Z,31.96
2023-02-26T09:15:36.705Z,26.73
2023-02-26T09:20:36.612Z,25.97
2023-02-26T09:25:36.658Z,34.46
2023-02-26T09:30:36.497Z,33.85
2023-02-26T09:35:36.460Z,36.18
2023-02-26T09:40:36.371Z,41.28
2023-02-26T09:45:36.320Z,29.77
2023-02-26T09:50:36.210Z,29.66
2023-02-26T09:55:36.198Z,27.55
2023-02-26T10:00:36.120Z,24.85
2023-02-26T10:05:36.054Z,32.98
2023-02-26T10:10:35.957Z,34.28
2023-02-26T10:15:35.938Z,38.85
2023-02-26T10:20:35.822Z,40.75
2023-02-26T10:25:35.805Z,40.33
2023-02-26T10:30:35.749Z,41.51
2023-02-26T10:35:35.646Z,39.11
2023-02-26T10:40:35.604Z,40.30
2023-02-26T10:45:37.374Z,40.94
2023-02-26T10:50:37.293Z,41.65
2023-02-26T10:55:37.942Z,41.85
2023-02-26T11:00:35.336Z,41.47
2023-02-26T11:05:35.246Z,41.77
2023-02-26T11:10:36.141Z,41.76
2023-02-26T11:15:35.231Z,42.04
2023-02-26T11:20:35.054Z,37.58
2023-02-26T11:25:36.078Z,33.96
2023-02-26T11:30:34.918Z,38.08
2023-02-26T11:35:34.869Z,40.13
2023-02-26T11:40:34.783Z,40.46
2023-02-26T11:45:34.748Z,41.32
2023-02-26T11:50:34.779Z,41.79
2023-02-26T11:55:34.622Z,41.28
2023-02-26T12:00:34.528Z,41.51
2023-02-26T12:05:34.496Z,41.61
2023-02-26T12:10:34.368Z,41.23
2023-02-26T12:15:34.352Z,41.56
2023-02-26T12:20:35.232Z,42.08
2023-02-26T12:25:34.339Z,42.55
2023-02-26T12:30:34.218Z,42.33
2023-02-26T12:35:34.070Z,42.21
2023-02-26T12:40:34.005Z,41.73
2023-02-26T12:45:33.975Z,41.21
2023-02-26T12:50:33.900Z,40.79
2023-02-26T12:55:33.821Z,40.35
2023-02-26T13:00:33.753Z,39.96
2023-02-26T13:05:33.694Z,40.24
2023-02-26T13:10:33.622Z,40.58
2023-02-26T13:15:33.618Z,40.37
2023-02-26T13:20:33.475Z,39.70
2023-02-26T13:25:33.431Z,39.73
2023-02-26T13:30:33.396Z,40.28
2023-02-26T13:35:33.327Z,40.30
2023-02-26T13:40:33.227Z,40.27
2023-02-26T13:45:33.147Z,40.31
2023-02-26T13:50:33.073Z,40.97
2023-02-26T13:55:33.032Z,41.36
2023-02-26T14:00:32.943Z,41.64
2023-02-26T14:05:32.898Z,38.55
2023-02-26T14:10:32.819Z,36.47
2023-02-26T14:15:32.769Z,35.43
2023-02-26T14:20:32.711Z,36.66
2023-02-26T14:25:32.617Z,38.43
2023-02-26T14:30:32.615Z,38.53
2023-02-26T14:35:32.512Z,38.55
2023-02-26T14:40:32.413Z,38.53
2023-02-26T14:45:32.397Z,38.73
2023-02-26T14:50:32.269Z,39.74
2023-02-26T14:55:32.260Z,40.41
2023-02-26T15:00:32.147Z,40.42
2023-02-26T15:05:32.121Z,40.09
2023-02-26T15:10:32.010Z,40.12
2023-02-26T15:15:31.993Z,40.86
2023-02-26T15:20:31.904Z,41.49
2023-02-26T15:25:31.864Z,41.45
2023-02-26T15:30:31.753Z,41.58
2023-02-26T15:35:31.713Z,41.94
2023-02-26T15:40:31.624Z,42.35
2023-02-26T15:45:31.587Z,42.37
2023-02-26T15:50:31.512Z,42.27
2023-02-26T15:55:31.453Z,42.25
2023-02-26T16:00:31.380Z,42.49
2023-02-26T16:05:31.312Z,42.86
2023-02-26T16:10:31.275Z,43.38
2023-02-26T16:15:31.193Z,43.76
2023-02-26T16:20:31.138Z,44.00
2023-02-26T16:25:31.063Z,44.18
2023-02-26T16:30:30.978Z,44.34
2023-02-26T16:35:30.933Z,44.54
2023-02-26T16:40:30.840Z,44.84
2023-02-26T16:45:30.795Z,45.04
2023-02-26T16:50:30.758Z,45.32
2023-02-26T16:55:30.974Z,45.59
2023-02-26T17:00:30.616Z,45.76
2023-02-26T17:05:30.589Z,46.00
2023-02-26T17:10:30.523Z,46.26
2023-02-26T17:15:30.427Z,46.44
2023-02-26T17:20:30.337Z,46.63
2023-02-26T17:25:30.937Z,46.78
2023-02-26T17:30:30.268Z,46.92
2023-02-26T17:35:30.199Z,47.06
2023-02-26T17:40:30.154Z,47.20
2023-02-26T17:45:30.105Z,47.38
2023-02-26T17:50:29.906Z,47.52
2023-02-26T17:55:29.891Z,47.66
2023-02-26T18:00:29.833Z,47.83
2023-02-26T18:05:29.739Z,48.00
2023-02-26T18:10:29.694Z,48.20
2023-02-26T18:15:29.641Z,48.45
2023-02-26T18:20:29.902Z,48.68
2023-02-26T18:25:29.513Z,48.83
2023-02-26T18:30:29.562Z,48.98
2023-02-26T18:35:29.399Z,49.05
2023-02-26T18:40:29.455Z,49.21
2023-02-26T18:45:29.278Z,49.38
2023-02-26T18:50:29.179Z,49.51
2023-02-26T18:55:29.156Z,49.62
2023-02-26T19:00:29.757Z,49.78
2023-02-26T19:05:29.006Z,49.88
2023-02-26T19:10:28.965Z,49.98
2023-02-26T19:15:28.959Z,50.11
2023-02-26T19:20:28.926Z,50.24
2023-02-26T19:25:28.768Z,50.36
2023-02-26T19:30:28.744Z,50.49
2023-02-26T19:35:28.611Z,50.63
2023-02-26T19:40:28.570Z,50.72
2023-02-26T19:45:28.514Z,50.79
2023-02-26T19:50:28.443Z,50.86
2023-02-26T19:55:28.348Z,50.97
2023-02-26T20:00:28.344Z,51.07
2023-02-26T20:05:28.230Z,51.21
2023-02-26T20:10:28.234Z,51.33
2023-02-26T20:15:28.132Z,51.45
2023-02-26T20:20:28.123Z,51.51
2023-02-26T20:25:28.009Z,51.61
2023-02-26T20:30:27.938Z,51.70
2023-02-26T20:35:27.849Z,51.78
2023-02-26T20:40:27.776Z,51.86
2023-02-26T20:45:27.713Z,51.95
2023-02-26T20:50:27.665Z,52.03
2023-02-26T20:55:27.582Z,52.11
2023-02-26T21:00:27.645Z,52.18
2023-02-26T21:05:27.468Z,52.28
2023-02-26T21:10:27.408Z,52.35
2023-02-26T21:15:27.351Z,52.43
2023-02-26T21:20:27.290Z,52.51
2023-02-26T21:25:27.238Z,52.59
2023-02-26T21:30:27.220Z,52.70
2023-02-26T21:35:27.107Z,52.75
2023-02-26T21:40:27.050Z,52.80
2023-02-26T21:45:26.983Z,52.89
2023-02-26T21:50:26.957Z,52.97
2023-02-26T21:55:26.818Z,53.05
2023-02-26T22:00:26.756Z,53.13
2023-02-26T22:05:26.770Z,53.21
2023-02-26T22:10:26.660Z,53.27
2023-02-26T22:15:26.571Z,53.34
2023-02-26T22:20:26.511Z,53.43
2023-02-26T22:25:26.483Z,53.46
2023-02-26T22:30:26.421Z,53.50
2023-02-26T22:35:26.315Z,53.50
2023-02-26T22:40:26.265Z,53.54
2023-02-26T22:45:26.223Z,53.56
2023-02-26T22:50:26.117Z,53.54
2023-02-26T22:55:26.091Z,53.61
2023-02-26T23:00:26.013Z,53.75
2023-02-26T23:05:25.964Z,53.79
2023-02-26T23:10:25.942Z,53.83
2023-02-26T23:15:26.021Z,53.88
2023-02-26T23:20:25.764Z,53.95
2023-02-26T23:25:25.701Z,54.02
2023-02-26T23:30:25.628Z,54.06
2023-02-26T23:35:25.567Z,54.24
2023-02-26T23:40:26.173Z,54.33
2023-02-26T23:45:25.446Z,54.39
2023-02-26T23:50:25.376Z,54.37
2023-02-26T23:55:25.301Z,54.37
